Time;durP1;ratioP1;P1;durP2;ratioP2;P2;SDS_P1;SDS_P2;PMS_P1;PMS_P2;Temp;Humidity;BMP_temperature;BMP_pressure;BME280_temperature;BME280_humidity;BME280_pressure;Samples;Min_cycle;Max_cycle;Signal;HPM_P1;HPM_P2
2022/07/27 00:00:36;;;;;;;3.42;0.40;;;13.30;99.90;;;;;;4892973;29;20508;-84
2022/07/27 00:03:07;;;;;;;3.60;1.00;;;13.40;99.90;;;;;;4889435;29;20107;-83
2022/07/27 00:05:59;;;;;;;3.10;0.50;;;13.40;99.90;;;;;;4893244;29;20396;-83
2022/07/27 00:08:27;;;;;;;2.67;0.47;;;13.40;99.90;;;;;;4910394;23;20048;-84
2022/07/27 00:10:56;;;;;;;3.25;0.35;;;13.30;99.90;;;;;;4865377;29;20167;-83
2022/07/27 00:14:02;;;;;;;3.80;0.60;;;13.30;99.90;;;;;;4869189;29;20041;-84
2022/07/27 01:28:13;;;;;;;2.65;0.20;;;13.70;99.90;;;;;;4928259;23;20050;-76
2022/07/27 01:30:39;;;;;;;5.07;0.52;;;13.70;99.90;;;;;;4937414;29;20046;-76
2022/07/27 01:33:06;;;;;;;1.63;0.30;;;13.70;99.90;;;;;;4925151;29;20050;-76
2022/07/27 01:35:32;;;;;;;3.00;0.20;;;13.70;99.90;;;;;;4920259;29;20439;-76
2022/07/27 01:37:58;;;;;;;10.07;0.70;;;13.70;99.90;;;;;;4902660;29;20048;-76
2022/07/27 01:40:24;;;;;;;2.58;0.30;;;13.70;99.90;;;;;;4904870;29;20043;-76
2022/07/27 01:42:50;;;;;;;1.40;0.40;;;13.60;99.90;;;;;;4902523;29;20125;-76
2022/07/27 01:45:16;;;;;;;2.75;0.45;;;13.50;99.90;;;;;;4895145;29;20055;-76
2022/07/27 01:47:41;;;;;;;2.00;0.25;;;13.50;99.90;;;;;;4899724;29;20409;-76
2022/07/27 01:50:07;;;;;;;3.60;1.05;;;13.40;99.90;;;;;;4913068;29;20052;-76
2022/07/27 01:52:33;;;;;;;2.00;0.52;;;13.40;99.90;;;;;;4907891;29;20145;-76
2022/07/27 01:54:59;;;;;;;7.55;0.57;;;13.40;99.90;;;;;;4908241;29;20040;-76
2022/07/27 01:57:24;;;;;;;5.32;0.57;;;13.40;99.90;;;;;;4902887;29;20055;-76
2022/07/27 01:59:52;;;;;;;2.60;0.77;;;13.30;99.90;;;;;;4906968;29;20426;-75
2022/07/27 02:02:17;;;;;;;2.47;0.30;;;13.30;99.90;;;;;;4908504;29;20035;-76
2022/07/27 02:04:43;;;;;;;2.95;0.52;;;13.20;99.90;;;;;;4904137;29;20040;-76
2022/07/27 02:07:09;;;;;;;2.10;0.35;;;13.10;99.90;;;;;;4897987;29;20058;-75
2022/07/27 02:09:34;;;;;;;4.00;1.55;;;13.00;99.90;;;;;;4899246;29;20033;-75
2022/07/27 02:14:44;;;;;;;3.38;0.28;;;12.90;99.90;;;;;;4900813;29;20048;-76
2022/07/27 02:17:09;;;;;;;5.32;0.70;;;12.80;99.90;;;;;;4907355;29;20492;-76
2022/07/27 02:19:35;;;;;;;5.38;0.60;;;12.80;99.90;;;;;;4906163;29;20057;-76
2022/07/27 02:22:01;;;;;;;4.68;0.47;;;12.70;99.90;;;;;;4903680;29;20052;-76
2022/07/27 02:24:26;;;;;;;3.20;0.40;;;12.70;99.90;;;;;;4906328;29;20032;-76
2022/07/27 02:26:52;;;;;;;4.50;0.50;;;12.60;99.90;;;;;;4902672;29;20763;-76
2022/07/27 02:29:18;;;;;;;4.10;1.27;;;12.60;99.90;;;;;;4909355;29;20483;-76
2022/07/27 02:31:44;;;;;;;3.67;1.08;;;12.50;99.90;;;;;;4902133;29;20664;-76
2022/07/27 02:34:09;;;;;;;3.25;0.65;;;12.50;99.90;;;;;;4907799;29;20067;-76
2022/07/27 02:36:35;;;;;;;8.02;0.90;;;12.50;99.90;;;;;;4907142;29;20096;-76
2022/07/27 02:39:00;;;;;;;2.03;0.35;;;12.40;99.90;;;;;;4906471;29;20044;-76
2022/07/27 02:41:26;;;;;;;3.85;0.80;;;12.40;99.90;;;;;;4919599;29;20448;-76
2022/07/27 02:43:51;;;;;;;4.47;0.60;;;12.40;99.90;;;;;;4893594;29;20045;-76
2022/07/27 02:46:17;;;;;;;1.90;0.55;;;12.50;99.90;;;;;;4910572;29;20071;-76
2022/07/27 02:48:42;;;;;;;2.55;0.80;;;12.40;99.90;;;;;;4882360;29;20055;-76
2022/07/27 02:51:08;;;;;;;4.18;0.50;;;12.40;99.90;;;;;;4906323;29;20100;-76
2022/07/27 02:53:33;;;;;;;6.20;0.57;;;12.40;99.90;;;;;;4902368;29;20516;-76
2022/07/27 02:55:59;;;;;;;3.85;0.40;;;12.40;99.90;;;;;;4906023;29;20202;-76
2022/07/27 02:58:24;;;;;;;3.13;0.70;;;12.30;99.90;;;;;;4924623;29;20047;-76
2022/07/27 03:00:51;;;;;;;1.23;0.30;;;12.30;99.90;;;;;;4909429;29;20051;-76
2022/07/27 03:03:17;;;;;;;3.83;0.82;;;12.30;99.90;;;;;;4905674;29;20143;-76
2022/07/27 03:05:43;;;;;;;3.92;0.90;;;12.30;99.90;;;;;;4892409;29;20558;-76
2022/07/27 03:08:09;;;;;;;3.50;0.50;;;12.20;99.90;;;;;;4912873;29;20482;-76
2022/07/27 03:10:34;;;;;;;3.55;0.40;;;12.20;99.90;;;;;;4917988;29;20052;-76
2022/07/27 03:13:01;;;;;;;2.90;0.40;;;12.10;99.90;;;;;;4906847;29;20043;-76
2022/07/27 03:15:28;;;;;;;2.30;0.95;;;12.10;99.90;;;;;;4897282;29;20055;-76
2022/07/27 03:17:54;;;;;;;3.15;0.73;;;12.00;99.90;;;;;;4901972;29;20070;-76
2022/07/27 03:20:19;;;;;;;4.43;0.45;;;11.90;99.90;;;;;;4906633;29;20049;-76
2022/07/27 03:22:45;;;;;;;3.92;0.90;;;12.00;99.90;;;;;;4902554;29;20040;-76
2022/07/27 03:25:11;;;;;;;2.10;0.90;;;12.00;99.90;;;;;;4905598;29;20449;-76
2022/07/27 03:27:36;;;;;;;2.03;0.40;;;11.90;99.90;;;;;;4905283;29;21651;-77
2022/07/27 03:30:03;;;;;;;1.58;0.70;;;12.00;99.90;;;;;;4898674;29;20390;-77
2022/07/27 03:32:29;;;;;;;2.22;0.60;;;12.00;99.90;;;;;;4909547;29;20122;-76
2022/07/27 03:34:55;;;;;;;6.03;1.70;;;12.00;99.90;;;;;;4905877;29;20434;-77
2022/07/27 03:37:20;;;;;;;3.75;0.40;;;12.00;99.90;;;;;;4911531;29;20035;-77
2022/07/27 03:39:47;;;;;;;11.13;1.05;;;12.00;99.90;;;;;;4918591;29;20062;-77
2022/07/27 03:42:13;;;;;;;3.28;1.20;;;12.10;99.90;;;;;;4906728;29;20043;-76
2022/07/27 03:44:38;;;;;;;4.00;0.90;;;12.10;99.90;;;;;;4901993;29;20051;-77
2022/07/27 03:47:04;;;;;;;2.55;0.57;;;12.10;99.90;;;;;;4909326;29;20603;-77
2022/07/27 03:49:30;;;;;;;4.22;0.88;;;12.10;99.90;;;;;;4906837;29;20083;-77
2022/07/27 03:51:56;;;;;;;6.05;2.05;;;12.30;99.90;;;;;;4906503;29;20044;-77
2022/07/27 03:54:21;;;;;;;3.63;0.50;;;12.40;99.90;;;;;;4923162;29;20046;-77
2022/07/27 03:56:47;;;;;;;1.48;0.60;;;12.40;99.90;;;;;;4900890;29;20048;-77
2022/07/27 03:59:12;;;;;;;3.17;0.70;;;12.50;99.90;;;;;;4907777;29;20118;-77
2022/07/27 04:01:38;;;;;;;3.42;0.85;;;12.50;99.90;;;;;;4904038;29;20111;-77
2022/07/27 04:04:04;;;;;;;3.75;0.70;;;12.50;99.90;;;;;;4902653;29;20043;-77
2022/07/27 04:06:29;;;;;;;4.43;0.70;;;12.60;99.90;;;;;;4923631;29;20040;-77
2022/07/27 04:08:55;;;;;;;2.25;0.68;;;12.60;99.90;;;;;;4917818;29;20047;-77
2022/07/27 04:11:21;;;;;;;4.68;0.60;;;12.60;99.90;;;;;;4909132;29;20040;-77
2022/07/27 04:13:50;;;;;;;1.77;0.30;;;12.60;99.90;;;;;;4907838;29;20503;-77
2022/07/27 04:16:16;;;;;;;5.68;0.40;;;12.70;99.90;;;;;;4903428;29;20050;-77
2022/07/27 04:18:41;;;;;;;5.20;1.15;;;12.70;99.90;;;;;;4907126;29;20048;-77
2022/07/27 04:21:07;;;;;;;3.75;0.50;;;12.80;99.90;;;;;;4894657;29;20041;-77
2022/07/27 04:23:32;;;;;;;3.75;0.60;;;12.80;99.90;;;;;;4905599;29;20361;-77
2022/07/27 04:25:58;;;;;;;3.47;0.60;;;12.80;99.90;;;;;;4892716;29;20059;-77
2022/07/27 04:28:24;;;;;;;3.60;0.55;;;12.80;99.90;;;;;;4906942;29;20074;-77
2022/07/27 04:30:50;;;;;;;1.83;0.73;;;12.90;99.90;;;;;;4918331;29;20040;-77
2022/07/27 04:33:15;;;;;;;1.92;0.50;;;12.90;99.90;;;;;;4915004;29;20055;-77
2022/07/27 04:35:41;;;;;;;4.68;0.47;;;13.00;99.90;;;;;;4906071;29;20066;-77
2022/07/27 04:38:07;;;;;;;6.53;0.65;;;13.10;99.90;;;;;;4898102;29;20509;-77
2022/07/27 04:40:33;;;;;;;3.67;0.45;;;13.20;99.90;;;;;;4900389;29;20042;-77
2022/07/27 04:43:05;;;;;;;2.63;0.63;;;13.30;99.90;;;;;;4920063;29;20118;-77
2022/07/27 04:45:31;;;;;;;2.78;0.70;;;13.40;99.90;;;;;;4899675;29;20039;-77
2022/07/27 04:47:56;;;;;;;3.20;0.77;;;13.40;99.90;;;;;;4909985;29;20042;-77
2022/07/27 04:50:22;;;;;;;3.85;0.63;;;13.60;99.90;;;;;;4908570;29;20466;-77
2022/07/27 04:52:48;;;;;;;3.00;0.95;;;13.60;99.90;;;;;;4920811;29;20063;-77
2022/07/27 04:55:14;;;;;;;3.65;0.60;;;13.70;99.90;;;;;;4900295;29;20040;-76
2022/07/27 04:57:42;;;;;;;4.78;0.50;;;13.90;99.90;;;;;;4901313;29;20406;-77
2022/07/27 05:00:09;;;;;;;4.25;0.30;;;13.90;99.90;;;;;;4905093;29;20048;-77
2022/07/27 05:02:39;;;;;;;2.38;0.50;;;14.00;99.90;;;;;;4906473;29;20756;-77
2022/07/27 05:05:06;;;;;;;6.18;0.70;;;14.10;99.90;;;;;;4906598;29;20044;-77
2022/07/27 05:07:31;;;;;;;3.63;0.60;;;14.10;99.90;;;;;;4906716;29;20043;-77
2022/07/27 05:09:57;;;;;;;3.63;1.50;;;14.20;99.90;;;;;;4902847;29;20044;-77
2022/07/27 05:12:22;;;;;;;2.58;0.52;;;14.20;99.90;;;;;;4907252;29;20055;-77
2022/07/27 05:14:48;;;;;;;2.38;0.63;;;14.20;99.90;;;;;;4909946;29;20069;-77
2022/07/27 05:17:13;;;;;;;4.55;0.60;;;14.20;99.90;;;;;;4902643;29;20043;-76
2022/07/27 05:19:39;;;;;;;5.82;0.50;;;14.20;99.90;;;;;;4904084;29;20463;-77
2022/07/27 05:22:04;;;;;;;4.15;0.88;;;14.30;99.90;;;;;;4905122;29;20621;-77
2022/07/27 05:24:30;;;;;;;4.00;0.40;;;14.40;99.90;;;;;;4899323;29;20471;-77
2022/07/27 05:26:55;;;;;;;3.53;0.98;;;14.40;99.90;;;;;;4908979;29;20042;-77
2022/07/27 05:29:21;;;;;;;4.00;0.95;;;14.40;99.90;;;;;;4898762;29;20040;-77
2022/07/27 05:31:46;;;;;;;4.45;1.13;;;14.50;99.90;;;;;;4907098;29;20498;-77
2022/07/27 05:34:12;;;;;;;2.42;0.50;;;14.50;99.90;;;;;;4921205;29;20053;-76
2022/07/27 05:36:38;;;;;;;3.72;0.50;;;14.50;99.90;;;;;;4913663;29;20467;-77
2022/07/27 05:39:04;;;;;;;2.58;0.60;;;14.50;99.90;;;;;;4907227;29;20047;-76
2022/07/27 05:41:29;;;;;;;3.53;0.50;;;14.60;99.90;;;;;;4904940;29;20039;-77
2022/07/27 05:43:55;;;;;;;6.28;1.80;;;14.60;99.90;;;;;;4904701;29;20411;-77
2022/07/27 05:46:21;;;;;;;7.57;0.63;;;14.70;99.90;;;;;;4915041;29;20035;-77
2022/07/27 05:48:47;;;;;;;2.33;0.65;;;14.80;99.90;;;;;;4900308;29;20031;-77
2022/07/27 05:51:13;;;;;;;2.63;0.60;;;14.80;99.90;;;;;;4906699;29;20131;-77
2022/07/27 05:53:39;;;;;;;2.75;1.02;;;14.90;99.90;;;;;;4909646;29;20042;-77
2022/07/27 05:56:06;;;;;;;3.33;0.60;;;14.90;99.90;;;;;;4920528;29;20585;-76
2022/07/27 05:58:32;;;;;;;3.95;0.93;;;15.00;99.90;;;;;;4903688;29;20054;-76
2022/07/27 06:00:58;;;;;;;3.45;1.00;;;15.00;99.90;;;;;;4905074;29;20039;-76
2022/07/27 06:03:24;;;;;;;4.05;0.77;;;15.10;99.90;;;;;;4907311;29;20433;-76
2022/07/27 06:05:50;;;;;;;3.22;0.40;;;15.00;99.90;;;;;;4905567;29;20387;-76
2022/07/27 06:08:15;;;;;;;3.58;0.50;;;15.10;99.90;;;;;;4898175;29;20138;-76
2022/07/27 06:10:41;;;;;;;2.45;0.70;;;15.20;99.90;;;;;;4915849;29;20048;-76
2022/07/27 06:13:08;;;;;;;2.20;0.40;;;15.20;99.90;;;;;;4905264;29;20053;-76
2022/07/27 06:15:35;;;;;;;3.38;0.43;;;15.20;99.90;;;;;;4924891;29;20098;-76
2022/07/27 06:18:02;;;;;;;4.40;0.80;;;15.30;99.90;;;;;;4904660;29;20094;-76
2022/07/27 06:20:29;;;;;;;3.58;0.82;;;15.40;99.90;;;;;;4904732;29;20122;-76
2022/07/27 06:22:59;;;;;;;3.50;0.40;;;15.50;99.90;;;;;;4904248;29;20040;-76
2022/07/27 06:25:26;;;;;;;2.00;0.90;;;15.60;99.90;;;;;;4899433;29;20094;-76
2022/07/27 06:27:52;;;;;;;3.55;0.60;;;15.60;99.90;;;;;;4907278;29;20043;-76
2022/07/27 06:30:21;;;;;;;5.72;0.90;;;15.60;99.90;;;;;;4909510;29;20411;-76
2022/07/27 06:32:47;;;;;;;3.85;0.70;;;15.60;99.90;;;;;;4906743;29;20043;-76
2022/07/27 06:35:13;;;;;;;2.22;0.40;;;15.60;99.90;;;;;;4899637;29;21346;-76
2022/07/27 06:37:50;;;;;;;4.55;0.40;;;15.50;99.90;;;;;;4897866;29;20135;-77
2022/07/27 06:40:16;;;;;;;2.42;0.40;;;15.40;99.90;;;;;;4894880;29;20083;-77
2022/07/27 06:42:42;;;;;;;5.35;0.70;;;15.20;99.90;;;;;;4892624;29;20083;-78
2022/07/27 06:45:09;;;;;;;4.68;0.65;;;15.00;99.90;;;;;;4897427;29;20048;-77
2022/07/27 06:47:35;;;;;;;4.85;0.70;;;14.80;99.90;;;;;;4906392;29;20092;-77
2022/07/27 06:50:01;;;;;;;6.00;0.57;;;14.70;99.90;;;;;;4898839;29;20072;-78
2022/07/27 06:52:27;;;;;;;2.97;0.77;;;14.70;99.90;;;;;;4894309;29;20083;-77
2022/07/27 06:54:52;;;;;;;2.25;0.35;;;14.70;99.90;;;;;;4911416;29;20491;-77
2022/07/27 06:57:18;;;;;;;2.78;0.50;;;14.80;99.90;;;;;;4886242;29;20076;-77
2022/07/27 06:59:43;;;;;;;5.78;0.70;;;14.80;99.90;;;;;;4886961;29;20139;-78
2022/07/27 07:02:09;;;;;;;2.38;0.38;;;14.80;99.90;;;;;;4900031;29;20055;-78
2022/07/27 07:04:35;;;;;;;5.95;1.10;;;14.90;99.90;;;;;;4907414;29;20571;-78
2022/07/27 07:07:00;;;;;;;3.35;0.50;;;15.10;99.90;;;;;;4904919;29;20035;-78
2022/07/27 07:09:27;;;;;;;2.90;0.20;;;15.30;99.90;;;;;;4923266;29;20044;-77
2022/07/27 07:11:53;;;;;;;3.75;0.40;;;15.30;99.90;;;;;;4903519;29;20039;-77
2022/07/27 07:14:19;;;;;;;3.10;0.45;;;15.40;99.90;;;;;;4907105;29;20758;-76
2022/07/27 07:16:44;;;;;;;3.05;0.47;;;15.50;99.90;;;;;;4917983;29;20043;-77
2022/07/27 07:19:11;;;;;;;1.65;0.35;;;15.70;99.90;;;;;;4919122;29;20043;-76
2022/07/27 07:21:36;;;;;;;1.98;0.30;;;15.90;99.90;;;;;;4903216;29;20066;-76
2022/07/27 07:24:02;;;;;;;3.67;0.50;;;16.00;99.90;;;;;;4900890;29;20396;-76
2022/07/27 07:26:28;;;;;;;6.03;0.90;;;16.00;99.90;;;;;;4900285;29;20483;-76
2022/07/27 07:28:53;;;;;;;3.03;0.40;;;16.00;99.90;;;;;;4885016;29;20546;-76
2022/07/27 07:31:19;;;;;;;3.15;0.30;;;16.20;99.90;;;;;;4919053;29;20048;-76
2022/07/27 07:33:45;;;;;;;4.95;1.58;;;16.30;99.90;;;;;;4905852;29;20506;-75
2022/07/27 07:36:11;;;;;;;3.20;1.50;;;16.40;99.90;;;;;;4910629;29;20048;-75
2022/07/27 07:38:36;;;;;;;3.70;0.63;;;16.70;99.90;;;;;;4905941;29;20530;-75
2022/07/27 07:41:02;;;;;;;3.80;0.20;;;16.90;99.90;;;;;;4907580;29;20040;-75
2022/07/27 07:43:28;;;;;;;2.08;0.40;;;17.10;99.90;;;;;;4900863;29;20059;-76
2022/07/27 07:45:54;;;;;;;3.35;0.40;;;17.40;99.90;;;;;;4919587;29;20039;-76
2022/07/27 07:48:20;;;;;;;2.15;0.50;;;17.50;99.90;;;;;;4903012;29;20043;-76
2022/07/27 07:50:47;;;;;;;2.10;0.30;;;17.60;99.90;;;;;;4910228;29;20040;-76
2022/07/27 07:53:14;;;;;;;5.68;1.67;;;17.70;99.90;;;;;;4897988;29;20132;-76
2022/07/27 07:55:39;;;;;;;5.22;2.15;;;18.10;99.90;;;;;;4907312;29;20051;-76
2022/07/27 07:58:05;;;;;;;2.17;0.38;;;18.50;99.90;;;;;;4905770;29;20040;-75
2022/07/27 08:00:31;;;;;;;4.55;0.70;;;18.80;99.90;;;;;;4891155;29;20132;-75
2022/07/27 08:02:57;;;;;;;3.72;1.27;;;18.90;99.90;;;;;;4923038;29;20045;-76
2022/07/27 08:05:23;;;;;;;5.97;3.35;;;19.10;99.90;;;;;;4916116;29;20048;-76
2022/07/27 08:07:49;;;;;;;14.70;7.93;;;19.30;99.90;;;;;;4895678;29;20031;-76
2022/07/27 08:10:17;;;;;;;92.82;74.25;;;19.60;99.90;;;;;;4897215;29;20466;-76
2022/07/27 08:12:45;;;;;;;64.03;52.15;;;19.80;99.90;;;;;;4889838;29;20048;-75
2022/07/27 08:15:12;;;;;;;1.90;0.90;;;20.00;99.90;;;;;;4896920;29;20055;-75
2022/07/27 08:17:38;;;;;;;2.72;0.35;;;20.20;99.90;;;;;;4899090;29;20051;-75
2022/07/27 08:20:06;;;;;;;1.75;0.20;;;20.30;99.90;;;;;;4904019;29;20040;-75
2022/07/27 08:22:32;;;;;;;4.03;0.60;;;20.60;99.90;;;;;;4909428;29;20115;-75
2022/07/27 08:24:57;;;;;;;2.92;0.40;;;20.80;99.90;;;;;;4917979;29;20476;-75
2022/07/27 08:27:23;;;;;;;2.83;0.70;;;20.70;99.90;;;;;;4917923;29;20066;-75
2022/07/27 08:29:49;;;;;;;1.75;0.40;;;20.50;99.90;;;;;;4918068;29;20103;-75
2022/07/27 08:32:14;;;;;;;1.58;0.30;;;20.50;99.90;;;;;;4918351;29;20053;-75
2022/07/27 08:34:40;;;;;;;3.95;0.30;;;20.70;99.90;;;;;;4918177;29;20119;-75
2022/07/27 08:37:05;;;;;;;4.68;1.00;;;20.90;99.90;;;;;;4914303;29;20147;-75
2022/07/27 08:39:31;;;;;;;2.30;0.45;;;20.80;99.90;;;;;;4917381;29;20051;-75
2022/07/27 08:42:03;;;;;;;3.95;0.70;;;20.30;99.90;;;;;;4918082;29;20048;-76
2022/07/27 08:44:29;;;;;;;1.33;0.20;;;19.90;99.90;;;;;;4918186;29;20095;-77
2022/07/27 08:46:56;;;;;;;1.80;0.45;;;19.30;99.90;;;;;;4918040;29;20043;-77
2022/07/27 08:49:22;;;;;;;3.72;0.47;;;18.50;99.90;;;;;;4918121;29;20040;-77
2022/07/27 08:51:49;;;;;;;3.50;0.30;;;17.90;99.90;;;;;;4917967;29;20506;-77
2022/07/27 08:54:15;;;;;;;4.03;0.30;;;17.40;99.90;;;;;;4914703;29;20419;-77
2022/07/27 08:56:42;;;;;;;3.97;0.30;;;17.00;99.90;;;;;;4917989;29;20048;-77
2022/07/27 08:59:08;;;;;;;8.27;1.25;;;16.80;99.90;;;;;;4917779;29;20059;-77
2022/07/27 09:01:37;;;;;;;4.47;0.40;;;16.70;99.90;;;;;;4917674;29;20044;-77
2022/07/27 09:04:02;;;;;;;1.95;0.82;;;16.70;99.90;;;;;;4917718;29;20047;-77
2022/07/27 09:06:42;;;;;;;2.42;0.30;;;16.70;99.90;;;;;;4917506;29;20058;-76
2022/07/27 09:09:09;;;;;;;2.50;0.40;;;16.60;99.90;;;;;;4934227;29;20048;-76
2022/07/27 09:11:36;;;;;;;1.42;0.50;;;16.70;99.90;;;;;;4913635;29;20319;-76
2022/07/27 09:14:04;;;;;;;1.58;0.40;;;16.80;99.90;;;;;;4930209;29;20516;-76
2022/07/27 09:16:30;;;;;;;2.03;0.20;;;17.00;99.90;;;;;;4917396;29;20070;-76
2022/07/27 09:19:01;;;;;;;4.10;0.57;;;17.10;99.90;;;;;;4913204;29;20522;-76
2022/07/27 09:21:27;;;;;;;4.05;0.47;;;17.30;99.90;;;;;;4933456;29;20118;-76
2022/07/27 09:24:04;;;;;;;4.22;0.30;;;17.50;99.90;;;;;;4917242;29;20489;-76
2022/07/27 09:26:29;;;;;;;3.72;0.30;;;17.50;99.90;;;;;;4917203;29;20051;-76
2022/07/27 09:28:57;;;;;;;2.65;0.50;;;17.60;99.90;;;;;;4916853;29;20035;-75
2022/07/27 09:31:24;;;;;;;4.40;0.55;;;17.60;99.90;;;;;;4917489;29;20047;-77
2022/07/27 09:33:53;;;;;;;2.13;0.75;;;17.60;99.90;;;;;;4901156;29;20046;-77
2022/07/27 09:36:21;;;;;;;2.80;0.50;;;17.60;99.90;;;;;;4917207;29;20052;-77
2022/07/27 09:38:59;;;;;;;2.60;0.35;;;17.60;99.90;;;;;;4916816;29;20074;-77
2022/07/27 09:41:25;;;;;;;4.63;0.80;;;17.80;99.90;;;;;;4917205;29;20123;-77
2022/07/27 09:43:55;;;;;;;4.47;0.40;;;18.00;99.90;;;;;;4917263;29;20566;-76
2022/07/27 09:46:32;;;;;;;2.10;0.45;;;18.10;99.90;;;;;;4917000;29;20079;-76
2022/07/27 09:48:58;;;;;;;3.83;0.30;;;18.20;99.90;;;;;;4915020;29;20058;-76
2022/07/27 09:51:24;;;;;;;1.08;0.20;;;18.40;99.90;;;;;;4915645;29;20112;-76
2022/07/27 09:53:51;;;;;;;1.20;0.20;;;18.50;99.90;;;;;;4934109;29;20036;-75
2022/07/27 09:56:16;;;;;;;2.22;0.50;;;18.80;99.90;;;;;;4916964;29;20043;-75
2022/07/27 09:58:46;;;;;;;1.60;0.17;;;19.30;99.90;;;;;;4916816;29;20379;-75
2022/07/27 10:01:19;;;;;;;1.98;0.35;;;19.80;99.90;;;;;;4916864;29;20408;-75
2022/07/27 10:03:46;;;;;;;2.42;0.40;;;20.40;99.90;;;;;;4933943;29;20094;-75
2022/07/27 10:06:11;;;;;;;1.77;0.17;;;20.70;99.90;;;;;;4900594;29;20057;-75
2022/07/27 10:08:40;;;;;;;1.52;0.10;;;20.90;99.90;;;;;;4916468;29;20048;-75
2022/07/27 10:11:06;;;;;;;1.85;0.57;;;21.20;99.90;;;;;;4916869;29;20080;-75
2022/07/27 10:13:32;;;;;;;5.15;0.98;;;21.30;99.90;;;;;;4916867;29;20079;-75
2022/07/27 10:16:00;;;;;;;1.52;0.10;;;21.30;99.90;;;;;;4916699;29;20043;-75
2022/07/27 10:18:36;;;;;;;3.63;0.40;;;21.00;98.80;;;;;;4916464;29;20043;-75
2022/07/27 10:21:07;;;;;;;2.08;0.82;;;20.90;97.90;;;;;;4900710;29;20043;-75
2022/07/27 10:23:35;;;;;;;1.77;0.20;;;20.80;98.90;;;;;;4916083;29;20099;-75
2022/07/27 10:26:20;;;;;;;2.15;0.82;;;20.90;98.40;;;;;;4916991;29;20051;-75
2022/07/27 10:28:52;;;;;;;3.58;0.20;;;21.20;97.30;;;;;;4916410;29;20051;-75
2022/07/27 10:31:24;;;;;;;4.38;0.25;;;21.30;95.90;;;;;;4916685;29;20044;-75
2022/07/27 10:33:56;;;;;;;2.33;0.20;;;21.30;97.10;;;;;;4916681;29;20491;-75
2022/07/27 10:36:21;;;;;;;2.33;0.17;;;21.60;95.70;;;;;;4902759;29;20059;-75
2022/07/27 10:38:55;;;;;;;0.30;0.05;;;21.70;96.30;;;;;;4918502;29;20063;-75
2022/07/27 10:41:22;;;;;;;2.38;0.40;;;22.10;94.70;;;;;;4920127;29;20550;-76
2022/07/27 10:43:49;;;;;;;1.20;0.20;;;22.40;94.60;;;;;;4920058;29;20091;-76
2022/07/27 10:46:20;;;;;;;2.92;0.40;;;22.60;93.10;;;;;;4920365;29;20494;-76
2022/07/27 10:48:46;;;;;;;0.60;0.10;;;22.60;91.00;;;;;;4919724;29;20134;-75
2022/07/27 10:51:13;;;;;;;5.88;0.20;;;22.40;91.30;;;;;;4920299;29;20043;-76
2022/07/27 10:53:40;;;;;;;1.42;0.17;;;22.10;89.50;;;;;;4920458;29;20081;-76
2022/07/27 10:56:07;;;;;;;2.30;0.40;;;22.10;89.70;;;;;;4916454;29;20047;-76
2022/07/27 10:58:32;;;;;;;0.85;0.17;;;22.00;87.90;;;;;;4916194;29;20135;-76
2022/07/27 11:01:00;;;;;;;1.15;0.10;;;21.90;87.30;;;;;;4931470;29;20472;-75
2022/07/27 11:03:31;;;;;;;2.20;0.22;;;21.90;88.40;;;;;;4919742;29;20053;-75
2022/07/27 11:06:06;;;;;;;1.55;0.20;;;22.00;87.60;;;;;;4904148;29;20042;-76
2022/07/27 11:08:43;;;;;;;1.25;0.20;;;22.10;85.80;;;;;;4919585;29;20198;-75
2022/07/27 11:11:14;;;;;;;0.68;0.10;;;22.50;81.90;;;;;;4919931;29;20095;-76
2022/07/27 11:13:40;;;;;;;2.10;0.20;;;22.40;80.80;;;;;;4919109;29;20040;-76
2022/07/27 11:16:08;;;;;;;0.98;0.10;;;22.40;82.30;;;;;;4936774;29;20107;-76
2022/07/27 11:18:38;;;;;;;1.98;0.10;;;22.60;81.70;;;;;;4903688;29;20102;-76
2022/07/27 11:21:45;;;;;;;1.35;0.10;;;22.70;81.30;;;;;;4919598;29;20043;-76
2022/07/27 11:24:15;;;;;;;1.60;0.15;;;22.80;78.50;;;;;;4936659;29;20092;-77
2022/07/27 11:26:43;;;;;;;1.75;0.10;;;22.50;80.60;;;;;;4919458;29;20047;-76
2022/07/27 11:29:10;;;;;;;1.77;0.17;;;22.20;80.80;;;;;;4933944;29;20054;-76
2022/07/27 11:31:37;;;;;;;2.33;0.10;;;21.90;81.70;;;;;;4935462;29;20051;-76
2022/07/27 11:34:04;;;;;;;3.90;0.40;;;21.70;81.30;;;;;;4919616;29;20047;-75
2022/07/27 11:36:49;;;;;;;2.25;0.20;;;21.60;82.40;;;;;;4924277;29;20404;-76
2022/07/27 11:39:20;;;;;;;1.65;0.15;;;21.40;80.20;;;;;;4925526;29;20059;-75
2022/07/27 11:41:45;;;;;;;0.47;0.10;;;21.40;81.90;;;;;;4921197;29;20048;-76
2022/07/27 11:44:13;;;;;;;1.42;0.10;;;21.30;81.00;;;;;;4919058;29;20048;-76
2022/07/27 11:46:41;;;;;;;1.58;0.52;;;21.40;80.90;;;;;;4918032;29;20043;-75
2022/07/27 11:49:27;;;;;;;1.90;0.22;;;21.60;79.40;;;;;;4918222;29;20161;-75
2022/07/27 11:51:57;;;;;;;0.52;0.20;;;21.60;78.20;;;;;;4919084;29;20048;-76
2022/07/27 11:54:28;;;;;;;3.83;0.17;;;21.50;77.90;;;;;;4919073;29;20044;-76
2022/07/27 11:56:55;;;;;;;0.38;0.10;;;21.50;76.50;;;;;;4919128;29;20561;-76
2022/07/27 11:59:27;;;;;;;2.80;0.10;;;21.50;77.50;;;;;;4918579;29;20044;-76
2022/07/27 12:01:57;;;;;;;0.82;0.10;;;21.60;77.00;;;;;;4918694;29;20051;-76
2022/07/27 12:04:28;;;;;;;0.50;0.10;;;21.90;77.30;;;;;;4916540;29;20407;-76
2022/07/27 12:07:12;;;;;;;3.40;0.10;;;22.40;74.60;;;;;;4935845;29;20055;-76
2022/07/27 12:09:37;;;;;;;0.75;0.10;;;22.70;75.70;;;;;;4918510;29;20036;-76
2022/07/27 12:12:13;;;;;;;1.42;0.10;;;22.90;73.20;;;;;;4918705;29;20094;-76
2022/07/27 12:14:44;;;;;;;1.02;0.10;;;22.80;73.60;;;;;;4918887;29;20130;-76
2022/07/27 12:17:13;;;;;;;1.20;0.10;;;22.90;73.40;;;;;;4935626;29;20107;-76
2022/07/27 12:19:40;;;;;;;1.13;0.25;;;22.90;72.40;;;;;;4917410;29;20044;-77
2022/07/27 12:22:06;;;;;;;2.10;0.20;;;23.00;70.70;;;;;;4914838;29;20427;-76
2022/07/27 12:24:41;;;;;;;0.73;0.10;;;23.30;70.60;;;;;;4918059;29;20059;-76
2022/07/27 12:27:12;;;;;;;2.25;0.20;;;23.50;70.60;;;;;;4918251;29;20043;-76
2022/07/27 12:30:03;;;;;;;1.20;0.20;;;23.80;70.80;;;;;;4918431;29;20118;-76
2022/07/27 12:32:32;;;;;;;3.47;0.25;;;24.00;67.60;;;;;;4918648;29;20487;-76
2022/07/27 12:34:58;;;;;;;1.27;0.35;;;24.60;71.30;;;;;;4902479;29;20118;-76
2022/07/27 12:37:29;;;;;;;1.17;0.10;;;25.10;68.90;;;;;;4917903;29;20047;-76
2022/07/27 12:39:54;;;;;;;2.15;0.10;;;25.30;65.50;;;;;;4918064;29;20556;-76
2022/07/27 12:42:31;;;;;;;3.47;0.40;;;24.80;67.90;;;;;;4918076;29;20043;-76
2022/07/27 12:44:57;;;;;;;1.88;0.10;;;24.30;66.10;;;;;;4918048;29;20048;-76
2022/07/27 12:47:40;;;;;;;1.90;0.20;;;24.00;69.30;;;;;;4917865;29;20044;-76
2022/07/27 12:50:16;;;;;;;0.40;0.10;;;23.80;70.20;;;;;;4917956;29;20120;-76
2022/07/27 12:52:50;;;;;;;1.00;0.10;;;23.70;70.10;;;;;;4918030;29;20486;-76
2022/07/27 12:55:16;;;;;;;2.75;0.25;;;24.00;72.20;;;;;;4917305;29;20043;-76
2022/07/27 12:57:42;;;;;;;0.88;0.10;;;23.90;69.80;;;;;;4917600;29;20106;-76
2022/07/27 13:00:12;;;;;;;2.55;0.35;;;23.60;69.20;;;;;;4917126;29;20047;-76
2022/07/27 13:02:39;;;;;;;1.20;0.20;;;23.40;67.60;;;;;;4917874;29;20082;-76
2022/07/27 13:05:07;;;;;;;2.00;0.10;;;23.10;68.40;;;;;;4917640;29;20055;-76
2022/07/27 13:07:34;;;;;;;2.00;0.10;;;22.80;68.50;;;;;;4915133;29;20088;-76
2022/07/27 13:10:00;;;;;;;0.85;0.10;;;22.70;69.60;;;;;;4929978;29;20039;-76
2022/07/27 13:12:26;;;;;;;1.88;0.10;;;23.20;71.00;;;;;;4917379;29;20509;-76
2022/07/27 13:14:52;;;;;;;1.52;0.20;;;23.80;69.90;;;;;;4917563;29;20052;-76
2022/07/27 13:17:17;;;;;;;0.75;0.30;;;24.40;69.40;;;;;;4901685;29;20237;-76
2022/07/27 13:19:43;;;;;;;2.13;0.10;;;25.00;68.10;;;;;;4917500;29;20067;-76
2022/07/27 13:22:09;;;;;;;2.60;0.10;;;25.80;66.60;;;;;;4917547;29;20059;-76
2022/07/27 13:24:34;;;;;;;1.17;0.55;;;26.20;63.90;;;;;;4934468;29;20052;-77
2022/07/27 13:27:00;;;;;;;1.10;0.17;;;25.70;62.10;;;;;;4917059;29;20071;-76
2022/07/27 13:29:26;;;;;;;3.60;0.20;;;25.30;62.70;;;;;;4917703;29;20031;-77
2022/07/27 13:31:52;;;;;;;1.60;0.13;;;24.70;63.90;;;;;;4917529;29;20122;-77
2022/07/27 13:34:19;;;;;;;1.95;0.20;;;24.10;64.80;;;;;;4917314;29;20043;-77
2022/07/27 13:36:44;;;;;;;1.02;0.10;;;23.60;66.40;;;;;;4917357;29;20226;-77
2022/07/27 13:39:10;;;;;;;2.40;0.20;;;23.10;67.10;;;;;;4917047;29;20509;-77
2022/07/27 13:41:38;;;;;;;4.45;0.82;;;22.90;67.40;;;;;;4916182;29;20115;-76
2022/07/27 13:44:04;;;;;;;1.13;0.10;;;22.70;68.00;;;;;;4917395;29;20047;-77
2022/07/27 13:46:30;;;;;;;2.58;0.32;;;22.70;68.90;;;;;;4917388;29;20058;-76
2022/07/27 13:48:56;;;;;;;1.40;0.15;;;22.90;70.10;;;;;;4916817;29;20043;-77
2022/07/27 13:51:21;;;;;;;1.73;0.17;;;22.90;69.10;;;;;;4917067;29;20051;-77
2022/07/27 13:53:47;;;;;;;1.45;0.10;;;22.80;67.10;;;;;;4916948;29;20388;-77
2022/07/27 13:56:13;;;;;;;2.00;0.30;;;22.90;67.10;;;;;;4933574;29;20031;-76
2022/07/27 13:58:39;;;;;;;2.78;0.32;;;23.00;67.70;;;;;;4916698;29;20454;-77
2022/07/27 14:01:06;;;;;;;3.00;0.20;;;22.70;67.10;;;;;;4901038;29;20040;-76